Time;durP1;ratioP1;P1;durP2;ratioP2;P2;SDS_P1;SDS_P2;PMS_P1;PMS_P2;Temp;Humidity;BMP_temperature;BMP_pressure;BME280_temperature;BME280_humidity;BME280_pressure;Samples;Min_cycle;Max_cycle;Signal;HPM_P1;HPM_P2
2022/08/15 00:02:17;;;;;;;26.70;18.33;;;;;;;21.42;86.92;100133.75;5114572;28;20494;-75
2022/08/15 00:08:06;;;;;;;23.95;18.80;;;;;;;21.22;86.04;100167.56;5114844;28;20522;-78
2022/08/15 00:10:31;;;;;;;27.77;17.85;;;;;;;21.38;84.32;100143.59;5113743;28;20088;-77
2022/08/15 00:13:00;;;;;;;25.60;18.33;;;;;;;21.43;84.18;100149.75;5095923;28;20028;-76
2022/08/15 00:15:25;;;;;;;23.38;19.45;;;;;;;21.42;84.03;100150.88;5095191;28;20422;-77
2022/08/15 00:21:13;;;;;;;25.50;18.65;;;;;;;21.38;83.41;100141.69;5114702;28;20042;-77
2022/08/15 00:23:42;;;;;;;26.42;19.67;;;;;;;21.46;83.44;100141.00;5087966;28;20039;-76
2022/08/15 00:26:10;;;;;;;29.88;19.92;;;;;;;21.47;84.89;100155.41;5114533;28;20365;-76
2022/08/15 00:28:36;;;;;;;28.70;20.35;;;;;;;21.50;83.90;100154.78;5113422;28;20488;-77
2022/08/15 00:31:05;;;;;;;24.85;19.35;;;;;;;21.45;84.30;100149.47;5113831;28;20080;-78
2022/08/15 00:36:52;;;;;;;29.30;20.60;;;;;;;21.48;84.66;100141.50;5114392;28;20123;-76
2022/08/15 00:39:20;;;;;;;26.25;19.80;;;;;;;21.55;83.23;100143.81;5113119;28;20063;-76
2022/08/15 00:41:48;;;;;;;29.67;19.23;;;;;;;21.59;83.69;100151.03;5095574;28;20030;-76
2022/08/15 00:44:23;;;;;;;31.75;20.92;;;;;;;21.49;83.48;100134.13;5095658;28;20099;-76
2022/08/15 00:50:13;;;;;;;27.88;20.52;;;;;;;21.22;86.36;100134.91;5114054;28;20055;-76
2022/08/15 00:56:01;;;;;;;29.08;20.17;;;;;;;21.16;86.23;100130.69;5112838;28;20038;-76
2022/08/15 00:58:27;;;;;;;32.03;22.52;;;;;;;21.14;85.56;100141.88;5110569;28;20047;-75
2022/08/15 01:00:52;;;;;;;30.42;20.88;;;;;;;21.17;85.68;100145.91;5113327;28;20027;-76
2022/08/15 01:03:24;;;;;;;30.75;20.73;;;;;;;21.27;84.17;100154.69;5112477;28;20036;-76
2022/08/15 01:05:54;;;;;;;28.05;21.88;;;;;;;21.36;83.36;100151.25;5095136;28;20028;-76
2022/08/15 01:08:22;;;;;;;30.65;20.90;;;;;;;21.42;82.34;100139.19;5112443;28;20055;-75
2022/08/15 01:10:47;;;;;;;31.67;20.98;;;;;;;21.52;80.28;100145.22;5095015;28;20042;-76
2022/08/15 01:13:13;;;;;;;30.60;20.00;;;;;;;21.61;79.57;100139.84;5095010;28;20471;-76
2022/08/15 01:15:38;;;;;;;29.13;20.42;;;;;;;21.70;79.08;100146.22;5094632;28;20039;-76
2022/08/15 01:18:04;;;;;;;30.35;20.90;;;;;;;21.74;77.55;100147.22;5095048;28;20035;-76
2022/08/15 01:20:34;;;;;;;31.90;20.55;;;;;;;21.75;77.02;100139.84;5112511;28;20055;-76
2022/08/15 01:23:19;;;;;;;27.52;19.58;;;;;;;21.82;75.41;100146.47;5113077;28;20495;-76
2022/08/15 01:26:02;;;;;;;30.23;20.30;;;;;;;21.86;75.03;100133.06;5111670;28;20067;-76
2022/08/15 01:28:32;;;;;;;30.05;18.55;;;;;;;21.84;73.84;100135.28;5094814;28;20031;-76
2022/08/15 01:31:20;;;;;;;27.77;18.23;;;;;;;21.90;74.04;100139.50;5112248;28;20039;-75
2022/08/15 01:33:48;;;;;;;24.70;18.17;;;;;;;21.86;73.52;100135.78;5113024;28;20527;-76
2022/08/15 01:39:46;;;;;;;22.98;17.38;;;;;;;21.74;75.00;100141.75;5113520;28;20038;-76
2022/08/15 01:42:28;;;;;;;26.48;18.10;;;;;;;21.52;75.83;100128.88;5112641;28;20062;-75
2022/08/15 01:44:57;;;;;;;;;;;;;;;21.51;74.42;100129.19;5113244;28;20074;-75
2022/08/15 01:47:46;;;;;;;24.00;16.45;;;;;;;21.44;73.97;100128.81;5094528;28;19915;-75
2022/08/15 01:50:23;;;;;;;25.75;17.25;;;;;;;21.44;74.89;100137.78;5111995;28;20097;-75
2022/08/15 01:52:57;;;;;;;25.65;18.02;;;;;;;21.23;77.45;100142.81;5094305;28;20080;-75
2022/08/15 01:55:27;;;;;;;28.02;17.58;;;;;;;20.92;78.80;100147.19;5093799;28;20395;-75
2022/08/15 01:57:52;;;;;;;23.67;16.73;;;;;;;20.80;77.69;100144.94;5112630;28;20027;-75
2022/08/15 02:00:18;;;;;;;20.20;15.43;;;;;;;20.76;77.73;100143.91;5111758;28;20377;-75
2022/08/15 02:02:44;;;;;;;21.77;15.77;;;;;;;20.73;77.45;100148.03;5112367;28;20038;-75
2022/08/15 02:05:10;;;;;;;18.85;14.25;;;;;;;20.69;75.59;100143.50;5112408;28;20036;-75
2022/08/15 02:07:35;;;;;;;20.58;13.35;;;;;;;20.72;73.69;100142.91;5111572;28;20098;-75
2022/08/15 02:10:04;;;;;;;20.77;13.55;;;;;;;20.78;71.41;100149.06;5112421;28;20072;-75
2022/08/15 02:12:36;;;;;;;21.38;13.80;;;;;;;20.81;71.39;100160.13;5111511;28;20051;-75
2022/08/15 02:18:23;;;;;;;24.73;12.30;;;;;;;20.89;68.79;100150.50;5112593;28;20058;-75
2022/08/15 02:20:49;;;;;;;17.42;10.75;;;;;;;20.92;66.70;100148.00;5112213;28;20407;-75
2022/08/15 02:23:14;;;;;;;14.40;10.45;;;;;;;20.98;66.89;100143.25;5093101;28;20097;-76
2022/08/15 02:25:39;;;;;;;14.20;10.33;;;;;;;21.04;65.16;100142.06;5093964;28;20080;-76
2022/08/15 02:28:05;;;;;;;13.40;9.07;;;;;;;21.02;64.30;100145.06;5112152;28;20646;-75
2022/08/15 02:30:31;;;;;;;14.40;9.35;;;;;;;21.05;63.96;100149.09;5111184;28;20296;-75
2022/08/15 02:32:58;;;;;;;13.50;9.20;;;;;;;21.07;63.65;100135.19;5111975;28;20027;-76
2022/08/15 02:35:23;;;;;;;14.48;8.57;;;;;;;21.09;62.85;100141.94;5111103;28;20138;-75
2022/08/15 02:37:49;;;;;;;12.98;8.00;;;;;;;21.00;63.27;100127.44;5110893;28;20046;-76
2022/08/15 02:40:16;;;;;;;13.90;8.93;;;;;;;21.03;63.49;100145.88;5093795;28;20456;-76
2022/08/15 02:46:02;;;;;;;16.52;8.25;;;;;;;20.99;63.58;100150.31;5112159;28;20066;-75
2022/08/15 02:48:28;;;;;;;13.13;8.50;;;;;;;20.94;63.91;100153.94;5111120;28;20103;-75
2022/08/15 02:50:53;;;;;;;10.17;8.93;;;;;;;20.93;63.12;100155.03;5093518;28;20051;-76
2022/08/15 02:53:20;;;;;;;13.52;9.05;;;;;;;20.89;63.28;100153.22;5111053;28;20281;-75
2022/08/15 02:55:47;;;;;;;11.98;8.27;;;;;;;20.87;64.54;100161.69;5093437;28;20016;-75
2022/08/15 02:58:14;;;;;;;15.43;9.00;;;;;;;20.84;64.14;100167.72;5092972;28;20468;-76
2022/08/15 03:00:42;;;;;;;9.90;8.05;;;;;;;20.86;63.31;100165.50;5111527;28;20040;-76
2022/08/15 03:06:32;;;;;;;10.80;8.02;;;;;;;20.90;63.22;100152.13;5111931;28;20037;-75
2022/08/15 03:09:00;;;;;;;10.75;8.02;;;;;;;20.89;63.40;100156.75;5111527;28;20019;-76
2022/08/15 03:11:27;;;;;;;16.15;9.10;;;;;;;20.82;63.08;100150.91;5092884;28;20079;-75
2022/08/15 03:13:53;;;;;;;13.98;8.63;;;;;;;20.80;63.79;100144.94;5093264;28;20020;-75
2022/08/15 03:16:19;;;;;;;15.00;8.55;;;;;;;20.77;63.25;100140.09;5110744;28;20377;-75
2022/08/15 03:18:44;;;;;;;14.18;8.85;;;;;;;20.71;63.96;100141.28;5111602;28;20037;-75
2022/08/15 03:21:13;;;;;;;12.47;8.63;;;;;;;20.60;65.43;100140.69;5093086;28;20395;-75
2022/08/15 03:27:00;;;;;;;13.07;8.85;;;;;;;20.35;66.17;100165.50;5111571;28;20051;-75
2022/08/15 03:29:27;;;;;;;16.45;9.88;;;;;;;20.32;65.33;100163.38;5110776;28;20039;-75
2022/08/15 03:31:52;;;;;;;11.82;9.15;;;;;;;20.33;65.84;100159.56;5093218;28;20059;-75
2022/08/15 03:34:22;;;;;;;17.55;9.70;;;;;;;20.34;65.83;100163.88;5092543;28;20066;-76
2022/08/15 03:36:48;;;;;;;16.70;9.45;;;;;;;20.30;66.01;100160.16;5092974;28;20034;-75
2022/08/15 03:39:14;;;;;;;12.23;9.27;;;;;;;20.31;65.27;100159.06;5092398;28;20491;-76
2022/08/15 03:41:42;;;;;;;15.65;10.23;;;;;;;20.30;64.87;100152.81;5111180;28;20538;-76
2022/08/15 03:44:08;;;;;;;14.07;9.57;;;;;;;20.31;65.55;100153.63;5111154;28;20019;-75
2022/08/15 03:46:33;;;;;;;15.02;9.07;;;;;;;20.28;65.48;100151.50;5110441;28;20044;-76
2022/08/15 03:48:58;;;;;;;13.05;10.25;;;;;;;20.25;65.57;100152.91;5111917;28;20023;-75
2022/08/15 03:51:26;;;;;;;15.13;9.80;;;;;;;20.28;65.38;100152.31;5113840;28;20150;-75
2022/08/15 03:53:58;;;;;;;15.68;10.15;;;;;;;20.25;65.74;100155.63;5096228;28;20281;-75
2022/08/15 03:56:28;;;;;;;11.65;8.90;;;;;;;20.18;65.50;100147.00;5096267;28;20023;-75
2022/08/15 03:58:55;;;;;;;13.35;9.60;;;;;;;20.19;66.52;100153.25;5095708;28;20519;-75
2022/08/15 04:01:27;;;;;;;16.17;10.38;;;;;;;20.05;66.57;100156.72;5114137;28;20460;-75
2022/08/15 04:03:52;;;;;;;11.60;9.70;;;;;;;20.01;66.87;100163.84;5113582;28;20047;-76
2022/08/15 04:06:22;;;;;;;17.17;10.88;;;;;;;19.97;66.90;100170.94;5114406;28;20384;-75
2022/08/15 04:08:50;;;;;;;16.13;10.90;;;;;;;19.93;67.23;100174.50;5095407;28;20377;-76
2022/08/15 04:11:17;;;;;;;14.00;10.68;;;;;;;19.94;67.62;100178.84;5114048;28;20044;-76
2022/08/15 04:13:44;;;;;;;16.88;11.60;;;;;;;19.91;67.16;100171.28;5114258;28;20023;-76
2022/08/15 04:19:32;;;;;;;22.23;11.13;;;;;;;19.92;67.26;100176.44;5114578;28;20066;-75
2022/08/15 04:22:03;;;;;;;18.05;11.05;;;;;;;19.95;67.20;100173.16;5113206;28;20078;-76
2022/08/15 04:24:28;;;;;;;13.90;10.23;;;;;;;19.92;68.33;100164.75;5114221;28;20054;-75
2022/08/15 04:26:53;;;;;;;21.35;11.35;;;;;;;19.91;68.95;100163.94;5113306;28;20044;-75
2022/08/15 04:29:18;;;;;;;17.42;11.30;;;;;;;19.89;68.68;100168.88;5095768;28;20034;-75
2022/08/15 04:31:44;;;;;;;19.97;10.17;;;;;;;19.83;69.72;100167.34;5113909;28;20034;-75
2022/08/15 04:34:09;;;;;;;17.87;10.50;;;;;;;19.84;69.36;100170.84;5095273;28;20759;-75
2022/08/15 04:36:36;;;;;;;18.77;10.63;;;;;;;19.87;69.37;100178.41;5095635;28;20281;-75
2022/08/15 04:39:02;;;;;;;17.92;10.13;;;;;;;19.90;69.95;100175.91;5112963;28;20285;-75
2022/08/15 04:41:30;;;;;;;15.75;9.75;;;;;;;19.89;69.86;100170.78;5113577;28;20039;-75
2022/08/15 04:43:55;;;;;;;16.92;10.60;;;;;;;19.98;69.61;100179.91;5113168;28;20023;-75
2022/08/15 04:46:20;;;;;;;14.88;9.95;;;;;;;20.03;70.21;100175.19;5113601;28;20042;-75
2022/08/15 04:48:46;;;;;;;13.27;9.75;;;;;;;20.03;69.77;100169.78;5095514;28;20024;-75
2022/08/15 04:51:11;;;;;;;19.73;9.93;;;;;;;20.06;70.71;100177.31;5094822;28;20043;-75
2022/08/15 04:53:37;;;;;;;19.07;10.37;;;;;;;20.13;70.41;100178.88;5113696;28;20284;-75
2022/08/15 04:56:06;;;;;;;21.48;10.10;;;;;;;20.14;70.44;100181.28;5112676;28;20692;-76
2022/08/15 04:58:32;;;;;;;15.93;9.70;;;;;;;20.21;70.95;100184.44;5113597;28;20042;-75
2022/08/15 05:01:01;;;;;;;17.35;10.20;;;;;;;20.28;70.82;100175.94;5112352;28;20076;-75
2022/08/15 05:03:27;;;;;;;16.02;9.43;;;;;;;20.34;70.66;100183.72;5094550;28;20035;-76
2022/08/15 05:05:55;;;;;;;16.58;10.07;;;;;;;20.48;70.78;100189.22;5095130;28;20173;-75
2022/08/15 05:08:25;;;;;;;17.35;10.10;;;;;;;20.63;71.14;100191.69;5112659;28;20100;-75
2022/08/15 05:10:57;;;;;;;19.38;9.88;;;;;;;20.90;70.78;100182.81;5113900;28;20028;-75
2022/08/15 05:13:27;;;;;;;17.65;9.73;;;;;;;21.13;70.52;100186.50;5113438;28;20034;-75
2022/08/15 05:15:53;;;;;;;20.80;10.20;;;;;;;21.52;69.63;100185.22;5113032;28;20122;-75
2022/08/15 05:18:19;;;;;;;14.45;10.15;;;;;;;21.89;68.32;100193.13;5095047;28;20055;-75
2022/08/15 05:20:45;;;;;;;16.10;9.43;;;;;;;22.28;66.30;100191.78;5112467;28;20557;-75
2022/08/15 05:23:15;;;;;;;16.60;9.05;;;;;;;22.55;65.67;100193.56;5112930;28;20035;-75
2022/08/15 05:25:43;;;;;;;19.40;9.45;;;;;;;22.56;65.19;100189.75;5112171;28;20134;-76
2022/08/15 05:28:09;;;;;;;15.60;9.10;;;;;;;;;;5113069;28;20059;-76
2022/08/15 05:30:37;;;;;;;18.38;9.38;;;;;;;22.32;65.85;100190.03;5112967;28;20433;-76
2022/08/15 05:33:14;;;;;;;18.42;9.35;;;;;;;21.79;69.05;100196.09;5094304;28;20051;-75
2022/08/15 05:35:43;;;;;;;13.27;9.30;;;;;;;21.59;69.52;100196.50;5113111;28;20055;-74
2022/08/15 05:38:17;;;;;;;14.65;9.35;;;;;;;21.47;70.76;100201.66;5112238;28;20491;-75
2022/08/15 05:41:07;;;;;;;19.35;10.77;;;;;;;21.24;71.65;100211.59;5112891;28;20038;-75
2022/08/15 05:44:16;;;;;;;24.00;9.73;;;;;;;21.22;71.67;100214.59;5053045;28;20039;-75
2022/08/15 05:46:47;;;;;;;16.83;9.52;;;;;;;21.11;73.38;100210.47;5113144;28;20032;-75
2022/08/15 05:49:28;;;;;;;22.27;10.70;;;;;;;21.05;74.48;100211.63;5112153;28;20043;-75
2022/08/15 05:55:24;;;;;;;18.27;10.82;;;;;;;21.09;74.01;100206.41;5113200;28;20502;-75
2022/08/15 05:58:29;;;;;;;18.67;10.52;;;;;;;21.04;74.88;100212.72;5113003;28;20491;-76
2022/08/15 06:04:28;;;;;;;20.25;10.38;;;;;;;20.97;76.24;100221.28;5112969;28;20400;-75
2022/08/15 06:06:55;;;;;;;16.02;10.57;;;;;;;21.03;76.90;100228.25;5111606;28;20054;-76
2022/08/15 06:09:33;;;;;;;21.67;9.98;;;;;;;21.07;76.92;100231.16;5112508;28;20028;-75
2022/08/15 06:12:06;;;;;;;17.27;9.70;;;;;;;21.02;77.96;100223.91;5112222;28;20040;-75
2022/08/15 06:14:36;;;;;;;19.02;10.25;;;;;;;21.08;77.66;100227.34;5093496;28;20031;-75
2022/08/15 06:17:09;;;;;;;19.48;10.00;;;;;;;21.17;77.46;100222.84;5094007;28;20536;-76
2022/08/15 06:19:39;;;;;;;20.05;10.65;;;;;;;21.26;77.88;100240.09;5111616;28;20043;-75
2022/08/15 06:22:13;;;;;;;18.98;11.15;;;;;;;21.32;77.59;100230.75;5112224;28;20035;-75
2022/08/15 06:24:48;;;;;;;19.33;10.40;;;;;;;21.60;77.05;100228.03;5111859;28;20492;-75
2022/08/15 06:27:21;;;;;;;24.13;11.30;;;;;;;21.90;75.71;100229.34;5112335;28;20036;-75
2022/08/15 06:30:12;;;;;;;17.55;10.80;;;;;;;22.20;74.28;100238.78;5112303;28;20384;-76
2022/08/15 06:32:57;;;;;;;15.10;9.88;;;;;;;22.34;73.45;100230.59;5096189;28;20090;-75
2022/08/15 06:35:42;;;;;;;21.25;10.50;;;;;;;22.39;73.44;100225.03;5112037;28;20031;-75
2022/08/15 06:38:07;;;;;;;19.17;11.20;;;;;;;22.42;73.93;100214.31;5111386;28;20445;-76
2022/08/15 06:40:48;;;;;;;19.98;10.98;;;;;;;22.50;73.45;100229.13;5111980;28;20032;-76
2022/08/15 06:43:14;;;;;;;17.73;10.60;;;;;;;22.40;74.32;100223.91;5111142;28;20078;-75
2022/08/15 06:45:43;;;;;;;20.75;11.88;;;;;;;22.38;74.37;100221.50;5093867;28;20023;-75
2022/08/15 06:48:13;;;;;;;20.77;11.07;;;;;;;22.40;74.27;100224.72;5093035;28;20046;-74
2022/08/15 06:51:03;;;;;;;24.50;11.60;;;;;;;22.34;74.67;100228.69;5111906;28;20023;-75
2022/08/15 06:57:08;;;;;;;25.58;11.27;;;;;;;22.29;75.17;100239.69;5112560;28;20054;-75
2022/08/15 07:00:08;;;;;;;20.35;11.18;;;;;;;22.24;75.37;100237.06;5092975;28;20429;-75
2022/08/15 07:02:45;;;;;;;19.85;11.35;;;;;;;22.15;77.81;100241.63;5111655;28;20027;-75
2022/08/15 07:05:16;;;;;;;23.83;11.55;;;;;;;22.06;77.76;100241.56;5093350;28;20503;-75
2022/08/15 07:07:47;;;;;;;19.20;10.98;;;;;;;22.11;78.13;100240.63;5086494;28;20407;-75
2022/08/15 07:10:40;;;;;;;22.10;11.40;;;;;;;22.16;78.34;100235.88;5111685;28;20387;-75
2022/08/15 07:13:20;;;;;;;19.00;11.43;;;;;;;22.29;77.09;100233.44;5110992;28;20039;-75
2022/08/15 07:15:48;;;;;;;18.02;10.02;;;;;;;22.52;76.83;100218.72;5093268;28;20036;-75
2022/08/15 07:18:39;;;;;;;19.30;10.57;;;;;;;23.89;74.04;100214.31;5110534;28;20044;-76
2022/08/15 07:21:18;;;;;;;18.50;10.05;;;;;;;24.88;68.47;100215.34;5111576;28;20110;-76
2022/08/15 07:24:16;;;;;;;20.20;10.82;;;;;;;24.84;68.54;100220.63;5111080;28;20048;-77
2022/08/15 07:26:54;;;;;;;17.25;10.02;;;;;;;24.48;68.13;100231.94;5115076;28;20016;-75
2022/08/15 07:29:37;;;;;;;23.80;11.43;;;;;;;24.05;69.90;100229.16;5096176;28;20093;-75
2022/08/15 07:35:28;;;;;;;17.52;11.05;;;;;;;23.90;69.98;100222.19;5114319;28;20085;-75
2022/08/15 07:37:58;;;;;;;19.50;11.52;;;;;;;23.94;71.25;100227.81;5114826;28;20019;-76
2022/08/15 07:40:34;;;;;;;18.92;10.65;;;;;;;24.21;70.45;100224.00;5114225;28;20034;-76
2022/08/15 07:43:03;;;;;;;17.33;11.10;;;;;;;24.54;68.06;100224.38;5114611;28;20028;-75
2022/08/15 07:45:40;;;;;;;20.33;11.90;;;;;;;24.66;67.64;100222.59;5114790;28;20484;-76
2022/08/15 07:48:21;;;;;;;22.80;12.15;;;;;;;24.57;67.70;100229.19;5095893;28;20108;-75
2022/08/15 07:51:23;;;;;;;18.42;12.10;;;;;;;24.45;68.32;100227.13;5096512;28;20032;-75
2022/08/15 07:53:56;;;;;;;22.73;12.10;;;;;;;24.26;68.91;100232.03;5095829;28;20549;-75
2022/08/15 07:56:23;;;;;;;19.42;11.80;;;;;;;24.30;68.40;100244.00;5114689;28;20437;-76
2022/08/15 07:58:55;;;;;;;19.55;11.20;;;;;;;24.25;69.86;100244.91;5114005;28;20395;-75
2022/08/15 08:01:28;;;;;;;18.25;12.82;;;;;;;24.21;69.15;100229.47;5114376;28;20024;-76
2022/08/15 08:03:58;;;;;;;22.25;13.38;;;;;;;24.54;68.30;100243.50;5095403;28;20758;-76
2022/08/15 08:06:36;;;;;;;19.10;12.70;;;;;;;25.01;66.56;100245.25;5114726;28;20511;-76
2022/08/15 08:12:34;;;;;;;21.15;12.60;;;;;;;26.64;61.48;100244.75;5114317;28;20043;-75
2022/08/15 08:18:44;;;;;;;20.42;11.63;;;;;;;26.22;62.70;100257.63;5114781;28;20124;-75
2022/08/15 08:24:58;;;;;;;21.50;12.20;;;;;;;25.74;63.96;100258.09;5114685;28;20517;-76
2022/08/15 08:27:39;;;;;;;19.10;11.23;;;;;;;25.77;64.74;100251.97;5095439;28;20473;-76
2022/08/15 08:30:09;;;;;;;24.15;12.18;;;;;;;25.71;63.42;100250.50;5114122;28;20027;-75
2022/08/15 08:32:43;;;;;;;19.83;11.82;;;;;;;25.29;65.57;100256.63;5113214;28;20474;-76
2022/08/15 08:38:49;;;;;;;19.52;11.38;;;;;;;25.10;65.64;100258.13;5113504;28;20506;-75
2022/08/15 08:44:59;;;;;;;22.63;12.75;;;;;;;24.95;66.86;100256.69;5114295;28;20042;-75
2022/08/15 08:50:55;;;;;;;19.25;11.50;;;;;;;24.52;69.46;100249.28;5114143;28;20479;-76
2022/08/15 08:56:48;;;;;;;21.88;11.57;;;;;;;24.38;69.97;100252.19;5114126;28;20061;-75
2022/08/15 09:02:41;;;;;;;18.60;11.25;;;;;;;24.37;70.56;100258.00;5113696;28;20042;-76
2022/08/15 09:08:37;;;;;;;20.85;11.70;;;;;;;24.18;71.74;100266.44;5113769;28;20042;-76
2022/08/15 09:11:12;;;;;;;23.05;11.55;;;;;;;24.13;71.63;100263.06;5113549;28;20102;-76
2022/08/15 09:13:43;;;;;;;21.50;11.80;;;;;;;23.92;73.26;100263.66;5094709;28;20096;-75
2022/08/15 09:16:32;;;;;;;25.67;11.80;;;;;;;23.84;73.81;100278.09;5095242;28;20039;-75
2022/08/15 09:19:28;;;;;;;21.17;11.68;;;;;;;23.75;74.12;100275.34;5112667;28;20043;-75
2022/08/15 09:21:54;;;;;;;17.33;11.20;;;;;;;23.67;74.87;100276.09;5094900;28;20114;-75
2022/08/15 09:24:21;;;;;;;18.50;11.32;;;;;;;23.64;74.00;100275.91;5112278;28;20051;-76
2022/08/15 09:30:11;;;;;;;20.27;11.77;;;;;;;23.62;75.13;100278.97;5112796;28;20077;-75
2022/08/15 09:33:03;;;;;;;20.15;11.15;;;;;;;23.62;75.30;100280.91;5113030;28;20020;-75
2022/08/15 09:35:35;;;;;;;18.63;11.95;;;;;;;23.84;75.58;100277.28;5094725;28;20035;-77
2022/08/15 09:38:09;;;;;;;23.27;13.07;;;;;;;23.92;74.75;100281.97;5106250;28;20118;-75
2022/08/15 09:40:49;;;;;;;20.90;11.32;;;;;;;24.15;73.34;100269.81;5112931;28;20059;-75
2022/08/15 09:43:34;;;;;;;19.25;11.15;;;;;;;24.33;72.51;100271.50;5094033;28;20036;-76
2022/08/15 09:46:24;;;;;;;19.25;12.00;;;;;;;24.51;71.62;100280.50;5112908;28;20035;-75
2022/08/15 09:49:35;;;;;;;21.70;12.45;;;;;;;24.73;70.73;100273.25;5112130;28;20044;-76
2022/08/15 09:55:46;;;;;;;16.40;10.80;;;;;;;25.64;67.41;100273.72;5113440;28;20047;-76
2022/08/15 09:58:26;;;;;;;17.55;10.63;;;;;;;25.95;66.09;100272.63;5112735;28;20479;-75
2022/08/15 10:01:08;;;;;;;19.45;11.23;;;;;;;26.07;65.73;100280.16;5111817;28;20139;-75
2022/08/15 10:03:45;;;;;;;20.65;11.18;;;;;;;26.32;65.11;100287.41;5112582;28;20031;-76
2022/08/15 10:06:12;;;;;;;22.13;12.07;;;;;;;26.38;64.30;100290.78;5093814;28;20087;-75
2022/08/15 10:08:52;;;;;;;21.50;12.18;;;;;;;26.45;63.74;100291.84;5094044;28;20160;-76
2022/08/15 10:11:40;;;;;;;19.98;12.07;;;;;;;26.49;63.38;100275.53;5093449;28;20492;-75
2022/08/15 10:14:08;;;;;;;17.17;11.23;;;;;;;26.26;62.91;100269.53;5112353;28;20031;-75
2022/08/15 10:16:36;;;;;;;15.45;10.80;;;;;;;26.12;63.82;100280.75;5112211;28;20031;-75
2022/08/15 10:22:24;;;;;;;21.58;10.85;;;;;;;25.90;64.19;100275.56;5112248;28;20088;-76
2022/08/15 10:28:11;;;;;;;15.82;10.60;;;;;;;25.73;64.62;100273.69;5111832;28;20492;-75
2022/08/15 10:30:45;;;;;;;17.77;10.40;;;;;;;25.76;65.45;100280.50;5093981;28;20028;-76
2022/08/15 10:36:35;;;;;;;22.55;11.43;;;;;;;25.84;64.96;100285.91;5112480;28;20043;-78
2022/08/15 10:39:06;;;;;;;14.20;10.15;;;;;;;25.88;65.18;100288.78;5112082;28;20027;-77
2022/08/15 10:45:29;;;;;;;16.00;10.73;;;;;;;25.78;64.12;100289.97;5112501;28;20136;-77
2022/08/15 10:48:30;;;;;;;21.40;10.65;;;;;;;25.72;64.39;100295.94;5082303;28;20038;-77
2022/08/15 10:51:22;;;;;;;24.00;11.32;;;;;;;25.45;65.53;100281.53;5111958;28;20032;-75
2022/08/15 10:57:12;;;;;;;15.98;11.13;;;;;;;25.69;64.62;100285.66;5049309;28;20048;-79
2022/08/15 10:59:42;;;;;;;18.15;10.40;;;;;;;25.33;65.86;100292.34;5089560;28;20415;-77
2022/08/15 11:02:23;;;;;;;18.30;10.15;;;;;;;25.21;67.65;100294.97;5115692;28;20051;-78
2022/08/15 11:04:48;;;;;;;20.65;11.00;;;;;;;25.20;67.65;100293.38;5096576;28;20104;-78
2022/08/15 11:07:29;;;;;;;15.90;10.02;;;;;;;25.10;68.48;100285.47;5115431;28;20075;-78
2022/08/15 11:10:00;;;;;;;20.83;10.02;;;;;;;25.10;68.93;100293.69;5114528;28;20040;-78
2022/08/15 11:12:30;;;;;;;17.48;10.05;;;;;;;25.14;68.76;100297.38;5115361;28;20134;-78
2022/08/15 11:15:04;;;;;;;19.05;9.75;;;;;;;25.11;68.08;100295.28;5114385;28;20043;-78
2022/08/15 11:17:32;;;;;;;17.58;9.43;;;;;;;25.15;67.90;100298.97;5115340;28;20395;-78
2022/08/15 11:20:04;;;;;;;15.63;10.27;;;;;;;25.07;68.72;100300.63;5096358;28;20495;-78
2022/08/15 11:25:56;;;;;;;17.63;10.13;;;;;;;25.10;68.28;100289.00;5115167;28;20041;-78
2022/08/15 11:35:30;;;;;;;13.75;10.52;;;;;;;24.97;68.47;100293.53;5115263;28;20412;-77
2022/08/15 11:41:26;;;;;;;15.88;10.05;;;;;;;25.24;69.20;100294.31;5115164;28;20085;-77
2022/08/15 11:47:16;;;;;;;18.98;10.15;;;;;;;25.74;68.16;100299.19;5115150;28;20097;-77
2022/08/15 11:49:46;;;;;;;15.57;10.70;;;;;;;25.77;67.38;100295.78;5113843;28;20085;-78
2022/08/15 11:55:33;;;;;;;15.05;10.50;;;;;;;26.14;65.30;100313.31;5114789;28;20042;-78
2022/08/15 11:58:05;;;;;;;17.47;10.20;;;;;;;26.39;63.96;100300.63;5096542;28;20027;-76
2022/08/15 12:04:04;;;;;;;17.52;10.38;;;;;;;27.42;60.93;100298.88;5114939;28;20134;-78
2022/08/15 12:09:53;;;;;;;13.73;9.68;;;;;;;27.20;60.20;100302.88;5114238;28;20097;-77
2022/08/15 12:12:32;;;;;;;17.85;10.73;;;;;;;26.86;60.95;100296.50;5095653;28;20343;-76
2022/08/15 12:15:14;;;;;;;15.18;10.15;;;;;;;26.77;61.49;100301.28;5114289;28;20050;-77
2022/08/15 12:20:47;;;;;;;14.10;10.05;;;;;;;26.95;60.88;100310.19;5114413;28;20006;-77
2022/08/15 12:26:33;;;;;;;18.13;10.25;;;;;;;26.89;62.13;100317.00;5114566;28;20069;-81
2022/08/15 12:32:21;;;;;;;17.08;10.88;;;;;;;26.11;61.54;100309.31;5114289;28;20368;-78
2022/08/15 12:34:49;;;;;;;17.20;11.20;;;;;;;25.88;62.60;100311.50;5095070;28;20134;-78
2022/08/15 12:37:18;;;;;;;17.17;9.48;;;;;;;25.83;64.99;100308.16;5114074;28;20107;-78
2022/08/15 12:39:47;;;;;;;14.38;9.60;;;;;;;25.87;63.07;100304.44;5113883;28;20106;-77
2022/08/15 12:45:35;;;;;;;16.92;9.98;;;;;;;26.01;63.07;100317.88;5114386;28;20050;-77
2022/08/15 12:48:01;;;;;;;14.77;9.50;;;;;;;26.04;62.91;100310.97;5113026;28;20040;-77
2022/08/15 12:53:48;;;;;;;17.52;10.00;;;;;;;26.14;62.18;100307.84;5113958;28;20043;-77
2022/08/15 13:02:58;;;;;;;16.38;10.30;;;;;;;26.44;61.44;100322.34;5113390;28;20039;-76
2022/08/15 13:05:31;;;;;;;12.93;9.02;;;;;;;26.69;60.07;100326.84;5094776;28;20043;-76
2022/08/15 13:07:57;;;;;;;11.85;9.23;;;;;;;26.91;58.77;100320.22;5095137;28;20478;-76
2022/08/15 13:13:44;;;;;;;13.95;9.40;;;;;;;27.48;56.67;100308.53;5113407;28;20123;-76
2022/08/15 13:16:09;;;;;;;12.48;8.70;;;;;;;27.55;55.75;100302.47;5112480;28;20435;-76
2022/08/15 13:24:41;;;;;;;15.23;9.77;;;;;;;27.14;57.10;100310.50;5113404;28;20039;-76
2022/08/15 13:27:08;;;;;;;17.42;9.27;;;;;;;27.16;57.80;100310.94;5112353;28;20043;-76
2022/08/15 13:29:35;;;;;;;14.57;9.20;;;;;;;27.25;58.90;100319.13;5094801;28;20488;-76
2022/08/15 13:32:01;;;;;;;19.50;10.40;;;;;;;27.15;59.45;100320.31;5112898;28;20042;-76
2022/08/15 13:41:17;;;;;;;17.83;10.48;;;;;;;26.54;59.50;100305.50;5113279;28;20038;-76
2022/08/15 13:43:47;;;;;;;19.85;10.05;;;;;;;26.44;61.42;100319.63;5112175;28;20050;-76
2022/08/15 13:49:39;;;;;;;21.67;10.10;;;;;;;26.18;61.93;100315.06;5113115;28;20104;-76
2022/08/15 13:52:04;;;;;;;18.77;10.13;;;;;;;26.05;62.17;100321.59;5112795;28;20031;-77
2022/08/15 13:54:30;;;;;;;21.20;10.05;;;;;;;25.92;63.05;100315.19;5112714;28;20196;-77
2022/08/15 13:56:55;;;;;;;14.23;9.95;;;;;;;25.75;63.34;100309.00;5111877;28;20054;-76
2022/08/15 14:02:43;;;;;;;18.45;9.63;;;;;;;25.93;63.94;100314.06;5112689;28;20835;-77
2022/08/15 14:05:18;;;;;;;21.85;10.38;;;;;;;26.07;62.93;100308.38;5112704;28;20023;-77
2022/08/15 14:07:46;;;;;;;15.23;9.20;;;;;;;26.12;63.76;100307.38;5111997;28;20419;-77
2022/08/15 14:10:14;;;;;;;16.20;10.30;;;;;;;26.34;62.92;100298.88;5094286;28;20027;-77
2022/08/15 14:12:43;;;;;;;22.15;9.85;;;;;;;26.50;61.01;100302.63;5093646;28;20100;-76
2022/08/15 14:15:14;;;;;;;15.70;9.25;;;;;;;26.64;62.76;100304.31;5112608;28;20108;-77
2022/08/15 14:17:44;;;;;;;16.58;10.10;;;;;;;26.67;61.98;100298.16;5112577;28;20156;-77
2022/08/15 14:20:19;;;;;;;19.67;9.85;;;;;;;26.80;61.80;100306.09;5093715;28;20560;-77
2022/08/15 14:26:06;;;;;;;14.30;9.30;;;;;;;26.81;62.44;100298.66;5112732;28;20065;-78
2022/08/15 14:28:32;;;;;;;15.53;8.63;;;;;;;26.64;62.22;100305.13;5093880;28;20032;-77
2022/08/15 14:34:19;;;;;;;18.67;9.38;;;;;;;26.51;62.92;100306.97;5112487;28;20598;-78
2022/08/15 14:36:46;;;;;;;16.40;9.48;;;;;;;26.52;62.30;100305.03;5111310;28;20123;-76
2022/08/15 14:39:15;;;;;;;16.48;9.77;;;;;;;26.46;63.34;100296.22;5094085;28;20105;-78